createdAt,value
2022-10-12T00:03:08.433Z,100440.93
2022-10-12T00:12:41.984Z,100443.09
2022-10-12T00:22:17.058Z,100445.38
2022-10-12T00:31:48.950Z,100452.23
2022-10-12T00:41:22.024Z,100449.74
2022-10-12T00:50:57.574Z,100441.89
2022-10-12T01:00:31.419Z,100439.45
2022-10-12T01:10:04.659Z,100440.20
2022-10-12T01:19:36.155Z,100442.72
2022-10-12T01:29:11.534Z,100439.84
2022-10-12T01:38:44.046Z,100437.71
2022-10-12T01:48:19.965Z,100434.75
2022-10-12T01:57:51.567Z,100426.18
2022-10-12T02:07:25.483Z,100419.11
2022-10-12T02:16:58.969Z,100414.37
2022-10-12T02:26:32.778Z,100410.56
2022-10-12T02:36:06.517Z,100404.52
2022-10-12T02:45:42.263Z,100409.30
2022-10-12T02:55:17.121Z,100394.47
2022-10-12T03:04:49.527Z,100389.23
2022-10-12T03:14:21.944Z,100397.23
2022-10-12T03:23:57.220Z,100404.06
2022-10-12T03:33:29.040Z,100396.60
2022-10-12T03:43:02.833Z,100396.41
2022-10-12T03:52:38.410Z,100402.84
2022-10-12T04:02:14.413Z,100394.06
2022-10-12T04:11:46.354Z,100391.28
2022-10-12T04:21:18.504Z,100393.91
2022-10-12T04:30:53.741Z,100391.91
2022-10-12T04:40:27.115Z,100403.16
2022-10-12T04:50:00.027Z,100406.33
2022-10-12T04:59:32.711Z,100402.96
2022-10-12T05:09:07.581Z,100393.81
2022-10-12T05:18:40.671Z,100397.80
2022-10-12T05:28:14.473Z,100398.64
2022-10-12T05:37:46.185Z,100402.17
2022-10-12T05:47:21.116Z,100398.75
2022-10-12T05:56:54.901Z,100396.64
2022-10-12T06:06:27.131Z,100401.95
2022-10-12T06:16:00.796Z,100402.56
2022-10-12T06:25:35.046Z,100401.34
2022-10-12T06:35:09.401Z,100400.11
2022-10-12T06:44:44.809Z,100401.67
2022-10-12T06:54:17.010Z,100401.70
2022-10-12T07:03:51.107Z,100403.35
2022-10-12T07:13:26.412Z,100402.67
2022-10-12T07:23:00.069Z,100412.91
2022-10-12T07:32:33.648Z,100418.17
2022-10-12T07:42:07.872Z,100420.95
2022-10-12T07:51:40.302Z,100421.05
2022-10-12T08:01:16.498Z,100420.09
2022-10-12T08:10:49.310Z,100426.86
2022-10-12T08:20:25.227Z,100435.31
2022-10-12T08:29:59.664Z,100418.90
2022-10-12T08:39:34.345Z,100410.08
2022-10-12T08:49:09.199Z,100396.31
2022-10-12T08:58:42.530Z,100391.44
2022-10-12T08:59:45.041Z,100385.19
2022-10-12T09:09:21.006Z,100399.63
2022-10-12T09:10:24.975Z,100391.41
2022-10-12T09:19:57.118Z,100395.30
2022-10-12T09:21:01.203Z,100396.05
2022-10-12T09:22:05.219Z,100392.25
2022-10-12T09:23:09.108Z,100395.65
2022-10-12T09:24:11.422Z,100393.80
2022-10-12T09:25:14.015Z,100394.66
2022-10-12T09:26:17.360Z,100398.98
2022-10-12T09:35:49.337Z,100388.21
2022-10-12T09:36:53.539Z,100385.73
2022-10-12T09:37:55.874Z,100385.99
2022-10-12T09:38:58.378Z,100383.14
2022-10-12T09:40:02.477Z,100382.04
2022-10-12T09:41:06.429Z,100382.34
2022-10-12T09:42:10.459Z,100388.89
2022-10-12T09:43:12.877Z,100390.06
2022-10-12T09:44:17.547Z,100382.45
2022-10-12T09:45:19.842Z,100385.39
2022-10-12T09:46:22.310Z,100382.45
2022-10-12T09:47:24.800Z,100384.44
2022-10-12T09:48:28.912Z,100381.78
2022-10-12T09:49:32.982Z,100384.41
2022-10-12T09:50:36.879Z,100377.91
2022-10-12T09:51:39.246Z,100382.48
2022-10-12T09:52:42.683Z,100378.45
2022-10-12T09:53:45.194Z,100387.38
2022-10-12T09:54:47.666Z,100381.81
2022-10-12T09:55:50.145Z,100382.77
2022-10-12T09:56:54.651Z,100378.87
2022-10-12T09:57:57.101Z,100381.05
2022-10-12T09:58:59.726Z,100382.80
2022-10-12T10:00:02.246Z,100380.92
2022-10-12T10:01:04.662Z,100376.55
2022-10-12T10:02:08.714Z,100382.48
2022-10-12T10:03:12.706Z,100376.81
2022-10-12T10:04:16.602Z,100379.52
2022-10-12T10:05:18.959Z,100379.00
2022-10-12T10:06:23.209Z,100375.55
2022-10-12T10:07:25.498Z,100374.45
2022-10-12T10:08:27.923Z,100378.54
2022-10-12T10:09:30.455Z,100377.30
2022-10-12T10:10:32.930Z,100379.38
2022-10-12T10:11:37.033Z,100379.05
2022-10-12T10:12:39.358Z,100379.55
2022-10-12T10:13:41.781Z,100377.84
2022-10-12T10:14:44.205Z,100377.04
2022-10-12T10:15:48.355Z,100375.06
2022-10-12T10:16:52.244Z,100375.30
2022-10-12T10:17:56.160Z,100373.37
2022-10-12T10:18:58.549Z,100375.73
2022-10-12T10:20:00.939Z,100373.12
2022-10-12T10:21:05.023Z,100371.91
2022-10-12T10:22:08.938Z,100371.45
2022-10-12T10:23:11.276Z,100370.27
2022-10-12T10:24:15.435Z,100373.68
2022-10-12T10:25:19.393Z,100372.27
2022-10-12T10:26:23.344Z,100366.17
2022-10-12T10:27:25.628Z,100369.38
2022-10-12T10:28:29.883Z,100371.75
2022-10-12T10:29:37.702Z,100368.31
2022-10-12T10:30:42.997Z,100372.87
2022-10-12T10:31:45.194Z,100371.25
2022-10-12T10:32:47.615Z,100370.44
2022-10-12T10:33:50.090Z,100375.09
2022-10-12T10:34:54.097Z,100373.58
2022-10-12T10:35:56.478Z,100372.40
2022-10-12T10:36:58.893Z,100370.95
2022-10-12T10:38:01.635Z,100373.47
2022-10-12T10:39:04.103Z,100375.84
2022-10-12T10:40:06.528Z,100371.18
2022-10-12T10:41:09.047Z,100373.27
2022-10-12T10:42:11.508Z,100372.42
2022-10-12T10:43:15.850Z,100373.13
2022-10-12T10:44:21.709Z,100372.55
2022-10-12T10:45:22.286Z,100370.36
2022-10-12T10:46:26.187Z,100369.17
2022-10-12T10:47:28.528Z,100368.13
2022-10-12T10:48:30.996Z,100372.54
2022-10-12T10:49:33.446Z,100370.38
2022-10-12T10:50:35.916Z,100375.43
2022-10-12T11:00:37.117Z,100360.47
2022-10-12T11:01:12.609Z,100363.02
2022-10-12T11:02:16.652Z,100357.66
2022-10-12T11:03:18.960Z,100358.25
2022-10-12T11:04:21.469Z,100357.02
2022-10-12T11:05:23.928Z,100357.71
2022-10-12T11:06:27.983Z,100356.55
2022-10-12T11:07:30.365Z,100356.81
2022-10-12T11:08:32.897Z,100357.88
2022-10-12T11:09:35.325Z,100356.47
2022-10-12T11:10:37.813Z,100360.94
2022-10-12T11:11:41.894Z,100358.33
2022-10-12T11:12:44.209Z,100358.65
2022-10-12T11:13:47.690Z,100354.24
2022-10-12T11:14:51.649Z,100351.68
2022-10-12T11:15:54.004Z,100348.89
2022-10-12T11:16:56.462Z,100351.64
2022-10-12T11:17:59.022Z,100353.25
2022-10-12T11:19:03.039Z,100346.58
2022-10-12T11:20:06.999Z,100348.56
2022-10-12T11:21:09.483Z,100347.26
2022-10-12T11:22:11.903Z,100347.17
2022-10-12T11:23:16.073Z,100337.05
2022-10-12T11:24:18.409Z,100339.59
2022-10-12T11:25:22.447Z,100340.67
2022-10-12T11:26:24.762Z,100339.67
2022-10-12T11:27:27.201Z,100338.30
2022-10-12T11:28:31.322Z,100341.02
2022-10-12T11:29:33.643Z,100338.94
2022-10-12T11:30:36.100Z,100337.13
2022-10-12T11:31:40.262Z,100337.11
2022-10-12T11:32:42.592Z,100337.36
2022-10-12T11:42:21.677Z,100326.84
2022-10-12T11:43:18.850Z,100324.41
2022-10-12T11:44:26.430Z,100321.95
2022-10-12T11:45:26.805Z,100319.11
2022-10-12T11:46:30.791Z,100322.38
2022-10-12T11:47:33.193Z,100318.98
2022-10-12T11:48:37.206Z,100321.41
2022-10-12T11:49:39.592Z,100320.28
2022-10-12T11:50:42.041Z,100317.00
2022-10-12T11:51:44.553Z,100312.36
2022-10-12T11:52:48.660Z,100312.97
2022-10-12T11:53:51.117Z,100309.34
2022-10-12T11:54:55.156Z,100306.83
2022-10-12T11:55:59.098Z,100300.25
2022-10-12T11:57:01.465Z,100303.88
2022-10-12T11:58:05.636Z,100299.48
2022-10-12T11:59:06.446Z,100300.42
2022-10-12T12:00:10.526Z,100292.17
2022-10-12T12:01:12.880Z,100294.31
2022-10-12T12:02:17.035Z,100298.30
2022-10-12T12:03:20.971Z,100302.95
2022-10-12T12:05:28.859Z,100302.09
2022-10-12T12:06:31.388Z,100300.07
2022-10-12T12:07:33.865Z,100306.08
2022-10-12T12:08:37.947Z,100301.09
2022-10-12T12:09:40.557Z,100302.73
2022-10-12T12:10:44.386Z,100299.13
2022-10-12T12:11:48.395Z,100298.77
2022-10-12T12:12:50.709Z,100299.91
2022-10-12T12:13:54.775Z,100298.86
2022-10-12T12:14:58.786Z,100295.27
2022-10-12T12:16:01.069Z,100293.61
2022-10-12T12:17:03.540Z,100293.55
2022-10-12T12:18:07.604Z,100297.05
2022-10-12T12:19:09.962Z,100296.47
2022-10-12T12:20:14.093Z,100291.28
2022-10-12T12:21:18.008Z,100293.36
2022-10-12T12:22:21.965Z,100289.81
2022-10-12T12:23:24.393Z,100288.47
2022-10-12T12:24:28.485Z,100289.55
2022-10-12T12:25:33.499Z,100289.40
2022-10-12T12:26:37.389Z,100288.97
2022-10-12T12:27:41.343Z,100291.75
2022-10-12T12:28:45.360Z,100290.83
2022-10-12T12:29:47.641Z,100286.17
2022-10-12T12:30:51.686Z,100287.83
2022-10-12T12:31:54.029Z,100283.69
2022-10-12T12:32:58.093Z,100285.20
2022-10-12T12:34:00.491Z,100286.25
2022-10-12T12:35:04.513Z,100288.27
2022-10-12T12:36:08.440Z,100286.48
2022-10-12T12:37:12.381Z,100288.80
2022-10-12T12:38:14.703Z,100288.63
2022-10-12T12:39:17.234Z,100288.94
2022-10-12T12:40:21.347Z,100289.42
2022-10-12T12:41:25.290Z,100286.13
2022-10-12T12:42:27.525Z,100284.59
2022-10-12T12:43:30.036Z,100283.84
2022-10-12T12:44:32.486Z,100287.48
2022-10-12T12:45:35.014Z,100288.25
2022-10-12T12:46:39.070Z,100288.13
2022-10-12T12:47:46.054Z,100281.98
2022-10-12T12:48:43.878Z,100285.19
2022-10-12T12:49:46.432Z,100286.73
2022-10-12T12:50:51.736Z,100289.98
2022-10-12T12:51:53.940Z,100291.67
2022-10-12T12:52:56.466Z,100291.78
2022-10-12T12:53:59.040Z,100289.70
2022-10-12T12:55:01.611Z,100294.88
2022-10-12T12:56:05.728Z,100288.69
2022-10-12T12:57:09.714Z,100288.17
2022-10-12T12:58:13.727Z,100286.71
2022-10-12T12:59:16.628Z,100285.73
2022-10-12T13:00:20.811Z,100284.36
2022-10-12T13:01:24.767Z,100288.06
2022-10-12T13:02:28.546Z,100285.21
2022-10-12T13:03:30.925Z,100284.92
2022-10-12T13:04:35.211Z,100283.27
2022-10-12T13:05:37.575Z,100281.09
2022-10-12T13:06:40.180Z,100278.14
2022-10-12T13:07:42.620Z,100278.77
2022-10-12T13:08:45.146Z,100277.14
2022-10-12T13:09:47.617Z,100278.04
2022-10-12T13:10:50.127Z,100270.88
2022-10-12T13:11:52.631Z,100271.33
2022-10-12T13:12:56.709Z,100278.39
2022-10-12T13:13:58.976Z,100273.25
2022-10-12T13:15:01.485Z,100265.88
2022-10-12T13:16:04.257Z,100273.39
2022-10-12T13:17:32.151Z,100274.51
2022-10-12T13:18:18.641Z,100272.50
2022-10-12T13:19:13.226Z,100268.41
2022-10-12T13:20:15.783Z,100268.33
2022-10-12T13:21:18.133Z,100269.23
2022-10-12T13:22:22.226Z,100269.62
2022-10-12T13:23:26.213Z,100262.79
2022-10-12T13:24:28.617Z,100260.44
2022-10-12T13:25:31.033Z,100254.89
2022-10-12T13:26:33.532Z,100259.47
2022-10-12T13:27:36.325Z,100259.98
2022-10-12T13:28:42.682Z,100255.25
2022-10-12T13:29:46.599Z,100257.41
2022-10-12T13:30:49.009Z,100259.80
2022-10-12T13:31:51.445Z,100259.48
2022-10-12T13:32:53.902Z,100254.57
2022-10-12T13:33:56.382Z,100255.59
2022-10-12T13:35:00.538Z,100255.91
2022-10-12T13:36:02.877Z,100256.34
2022-10-12T13:37:05.425Z,100258.94
2022-10-12T13:38:07.824Z,100255.42
2022-10-12T13:39:10.242Z,100257.94
2022-10-12T13:40:12.804Z,100254.45
2022-10-12T13:41:15.247Z,100256.06
2022-10-12T13:42:17.745Z,100255.37
2022-10-12T13:43:21.812Z,100258.52
2022-10-12T13:44:24.131Z,100254.91
2022-10-12T13:45:26.609Z,100252.92
2022-10-12T13:46:30.703Z,100252.19
2022-10-12T13:47:33.340Z,100247.72
2022-10-12T13:49:41.114Z,100249.37
2022-10-12T13:50:43.481Z,100250.67
2022-10-12T13:51:45.947Z,100255.69
2022-10-12T13:52:48.626Z,100249.99
2022-10-12T13:53:51.088Z,100249.70
2022-10-12T13:54:55.227Z,100249.11
2022-10-12T13:56:00.153Z,100249.75
2022-10-12T13:57:02.562Z,100244.64
2022-10-12T13:58:06.606Z,100251.53
2022-10-12T13:59:11.846Z,100245.55
2022-10-12T14:00:12.950Z,100248.91
2022-10-12T14:01:15.516Z,100248.95
2022-10-12T14:02:17.962Z,100247.23
2022-10-12T14:03:20.688Z,100251.39
2022-10-12T14:04:23.065Z,100248.05
2022-10-12T14:05:25.568Z,100246.66
2022-10-12T14:06:28.018Z,100243.84
2022-10-12T14:07:30.677Z,100249.59
2022-10-12T14:08:32.995Z,100250.28
2022-10-12T14:09:37.062Z,100248.48
2022-10-12T14:10:39.480Z,100250.14
2022-10-12T14:11:41.999Z,100249.23
2022-10-12T14:12:44.482Z,100248.42
2022-10-12T14:13:47.032Z,100251.48
2022-10-12T14:14:51.080Z,100250.55
2022-10-12T14:15:55.043Z,100251.25
2022-10-12T14:16:58.992Z,100253.13
2022-10-12T14:18:03.093Z,100248.23
2022-10-12T14:19:07.035Z,100250.77
2022-10-12T14:20:09.501Z,100247.95
2022-10-12T14:21:11.973Z,100244.72
2022-10-12T14:22:14.395Z,100241.92
2022-10-12T14:23:18.453Z,100241.42
2022-10-12T14:24:20.807Z,100245.95
2022-10-12T14:25:24.892Z,100245.25
2022-10-12T14:26:28.912Z,100246.11
2022-10-12T14:27:31.221Z,100240.74
2022-10-12T14:28:33.753Z,100235.14
2022-10-12T14:29:36.204Z,100234.39
2022-10-12T14:30:38.698Z,100232.38
2022-10-12T14:31:42.723Z,100235.80
2022-10-12T14:32:46.740Z,100232.44
2022-10-12T14:33:49.110Z,100232.00
2022-10-12T14:34:51.559Z,100226.77
2022-10-12T14:35:55.615Z,100223.45
2022-10-12T14:36:58.036Z,100220.93
2022-10-12T14:38:00.619Z,100220.83
2022-10-12T14:39:03.051Z,100221.20
2022-10-12T14:40:07.191Z,100220.64
2022-10-12T14:41:09.534Z,100218.97
2022-10-12T14:42:11.998Z,100220.08
2022-10-12T14:43:14.444Z,100215.97
2022-10-12T14:44:18.504Z,100218.99
2022-10-12T14:45:20.923Z,100213.41
2022-10-12T14:46:25.000Z,100214.56
2022-10-12T14:47:27.330Z,100215.66
2022-10-12T14:48:29.868Z,100215.66
2022-10-12T14:49:32.332Z,100212.48
2022-10-12T14:50:36.375Z,100217.63
2022-10-12T14:51:38.771Z,100223.14
2022-10-12T14:52:42.865Z,100220.19
2022-10-12T14:53:45.251Z,100221.71
2022-10-12T14:54:47.810Z,100224.40
2022-10-12T14:55:52.256Z,100223.58
2022-10-12T14:56:52.723Z,100228.39
2022-10-12T14:57:57.797Z,100224.14
2022-10-12T14:59:01.669Z,100224.69
2022-10-12T15:00:03.973Z,100223.16
2022-10-12T15:01:08.210Z,100224.63
2022-10-12T15:02:12.004Z,100224.26
2022-10-12T15:03:14.326Z,100224.43
2022-10-12T15:04:16.830Z,100223.41
2022-10-12T15:05:19.339Z,100228.16
2022-10-12T15:06:21.810Z,100228.18
2022-10-12T15:07:25.891Z,100222.86
2022-10-12T15:08:29.228Z,100220.67
2022-10-12T15:09:31.630Z,100223.22
2022-10-12T15:10:35.733Z,100222.92
2022-10-12T15:11:39.675Z,100225.83
2022-10-12T15:12:42.012Z,100224.38
2022-10-12T15:13:44.487Z,100224.74
2022-10-12T15:14:48.551Z,100222.33
2022-10-12T15:15:52.519Z,100221.88
2022-10-12T15:16:56.390Z,100218.66
2022-10-12T15:17:58.732Z,100218.59
2022-10-12T15:19:02.838Z,100219.82
2022-10-12T15:20:05.100Z,100219.20
2022-10-12T15:21:09.244Z,100218.17
2022-10-12T15:22:13.200Z,100214.61
2022-10-12T15:23:17.074Z,100209.99
2022-10-12T15:24:21.049Z,100212.09
2022-10-12T15:25:25.000Z,100211.08
2022-10-12T15:26:29.030Z,100210.73
2022-10-12T15:27:31.373Z,100210.38
2022-10-12T15:28:35.469Z,100215.79
2022-10-12T15:29:37.752Z,100211.41
2022-10-12T15:30:52.397Z,100211.91
2022-10-12T15:31:42.735Z,100218.13
2022-10-12T15:32:45.162Z,100213.91
2022-10-12T15:33:47.676Z,100213.42
2022-10-12T15:34:50.132Z,100210.10
2022-10-12T15:35:54.218Z,100216.22
2022-10-12T15:36:58.186Z,100214.40
2022-10-12T15:38:02.214Z,100215.25
2022-10-12T15:39:06.104Z,100211.37
2022-10-12T15:40:10.087Z,100203.39
2022-10-12T15:41:12.468Z,100199.98
2022-10-12T15:42:14.941Z,100200.02
2022-10-12T15:43:19.023Z,100196.40
2022-10-12T15:44:22.947Z,100195.25
2022-10-12T15:45:25.287Z,100198.16
2022-10-12T15:46:29.290Z,100197.17
2022-10-12T15:47:34.258Z,100191.92
2022-10-12T15:48:36.514Z,100192.89
2022-10-12T15:49:39.011Z,100190.02
2022-10-12T15:50:43.066Z,100194.78
2022-10-12T15:51:46.985Z,100190.69
2022-10-12T15:52:50.186Z,100186.45
2022-10-12T15:53:54.225Z,100188.25
2022-10-12T15:54:59.148Z,100185.63
2022-10-12T15:56:02.995Z,100183.59
2022-10-12T15:57:05.370Z,100182.50
2022-10-12T15:58:07.760Z,100180.03
2022-10-12T15:59:11.861Z,100178.45
2022-10-12T16:00:16.005Z,100184.09
2022-10-12T16:01:20.005Z,100184.49
2022-10-12T16:02:22.229Z,100184.63
2022-10-12T16:03:26.358Z,100183.83
2022-10-12T16:04:27.242Z,100181.66
2022-10-12T16:05:29.700Z,100183.50
2022-10-12T16:06:33.687Z,100184.45
2022-10-12T16:07:36.072Z,100183.88
2022-10-12T16:08:40.124Z,100186.53
2022-10-12T16:09:42.484Z,100177.71
2022-10-12T16:10:46.516Z,100180.68
2022-10-12T16:11:48.986Z,100180.16
2022-10-12T16:12:51.414Z,100178.94
2022-10-12T16:13:56.618Z,100181.34
2022-10-12T16:14:57.931Z,100175.41
2022-10-12T16:16:01.899Z,100179.77
2022-10-12T16:17:05.844Z,100181.13
2022-10-12T16:18:08.143Z,100180.88
2022-10-12T16:19:12.187Z,100183.67
2022-10-12T16:20:14.574Z,100182.31
2022-10-12T16:21:17.063Z,100180.02
2022-10-12T16:22:19.674Z,100180.15
2022-10-12T16:23:22.193Z,100175.30
2022-10-12T16:24:24.573Z,100181.92
2022-10-12T16:25:27.266Z,100179.19
2022-10-12T16:26:31.463Z,100181.34
2022-10-12T16:27:35.401Z,100179.26
2022-10-12T16:28:37.736Z,100179.97
2022-10-12T16:29:40.182Z,100183.44
2022-10-12T16:30:44.324Z,100179.11
2022-10-12T16:31:48.199Z,100181.33
2022-10-12T16:32:50.563Z,100175.44
2022-10-12T16:33:54.673Z,100176.42
2022-10-12T16:43:24.465Z,100176.38
2022-10-12T16:52:58.376Z,100183.05
2022-10-12T17:02:32.003Z,100196.66
2022-10-12T17:12:05.859Z,100189.08
2022-10-12T17:21:41.443Z,100191.79
2022-10-12T17:31:13.489Z,100188.14
2022-10-12T17:40:47.868Z,100193.55
2022-10-12T17:50:21.930Z,100201.70
2022-10-12T17:59:56.452Z,100188.85
2022-10-12T18:09:30.565Z,100189.03
2022-10-12T18:19:04.278Z,100185.74
2022-10-12T18:28:38.628Z,100184.05
2022-10-12T18:38:12.713Z,100179.16
2022-10-12T18:47:46.680Z,100173.41
2022-10-12T18:57:20.992Z,100185.61
2022-10-12T19:06:58.035Z,100190.67
2022-10-12T19:16:30.934Z,100204.14
2022-10-12T19:26:03.178Z,100180.70
2022-10-12T19:35:37.266Z,100205.67
2022-10-12T19:45:11.093Z,100194.90
2022-10-12T19:54:46.969Z,100211.64
2022-10-12T19:55:50.969Z,100201.69
2022-10-12T20:05:22.530Z,100195.80
2022-10-12T20:14:57.946Z,100207.80
2022-10-12T20:24:31.759Z,100212.83
2022-10-12T20:34:04.356Z,100208.71
2022-10-12T20:43:40.105Z,100203.11
2022-10-12T20:53:13.732Z,100206.50
2022-10-12T21:02:47.675Z,100209.75
2022-10-12T21:12:20.551Z,100196.63
2022-10-12T21:21:55.766Z,100188.28
2022-10-12T21:31:32.189Z,100205.39
2022-10-12T21:41:03.104Z,100202.00
2022-10-12T21:50:35.165Z,100191.93
2022-10-12T22:00:10.778Z,100186.88
2022-10-12T22:09:44.428Z,100177.47
2022-10-12T22:19:17.084Z,100171.05
2022-10-12T22:28:51.005Z,100184.85
2022-10-12T22:38:24.544Z,100189.61
2022-10-12T22:47:58.230Z,100190.84
2022-10-12T22:57:33.287Z,100183.30
2022-10-12T23:07:07.497Z,100185.27
2022-10-12T23:16:39.789Z,100175.34
2022-10-12T23:26:13.729Z,100165.69
2022-10-12T23:35:49.625Z,100153.03
2022-10-12T23:45:22.791Z,100156.84
2022-10-12T23:54:54.901Z,100169.06
